Time;durP1;ratioP1;P1;durP2;ratioP2;P2;SDS_P1;SDS_P2;PMS_P1;PMS_P2;Temp;Humidity;BMP_temperature;BMP_pressure;BME280_temperature;BME280_humidity;BME280_pressure;Samples;Min_cycle;Max_cycle;Signal;HPM_P1;HPM_P2
2020/12/27 00:00:24;;;;;;;13.07;7.57;;;0.70;99.90;;;;;;5095492;28;20035;-84
2020/12/27 00:02:50;;;;;;;11.63;6.90;;;1.00;99.90;;;;;;5077693;28;20020;-84
2020/12/27 00:05:16;;;;;;;16.80;7.53;;;1.10;99.90;;;;;;5078269;28;20027;-84
2020/12/27 00:07:41;;;;;;;13.77;8.02;;;1.00;99.90;;;;;;5097259;28;20039;-84
2020/12/27 00:10:07;;;;;;;11.98;6.80;;;0.80;99.90;;;;;;5098698;28;20035;-84
2020/12/27 00:12:34;;;;;;;14.68;8.65;;;0.90;99.90;;;;;;5081215;28;20056;-84
2020/12/27 00:15:00;;;;;;;13.10;7.28;;;0.90;99.90;;;;;;5103623;28;20028;-84
2020/12/27 00:17:25;;;;;;;14.95;7.38;;;0.90;99.90;;;;;;5083255;28;20028;-84
2020/12/27 00:19:51;;;;;;;20.38;11.18;;;1.10;99.90;;;;;;5111015;28;20020;-84
2020/12/27 00:22:20;;;;;;;10.60;6.28;;;0.90;99.90;;;;;;5109510;28;20011;-84
2020/12/27 00:24:45;;;;;;;14.98;6.93;;;0.90;99.90;;;;;;5092100;28;20024;-84
2020/12/27 00:27:13;;;;;;;15.55;8.30;;;0.80;99.90;;;;;;5091797;28;20066;-84
2020/12/27 00:29:39;;;;;;;11.85;6.97;;;0.90;99.90;;;;;;5112595;28;20024;-84
2020/12/27 00:32:05;;;;;;;13.75;6.80;;;0.90;99.90;;;;;;5114366;28;20069;-85
2020/12/27 00:34:30;;;;;;;13.75;7.38;;;1.00;99.90;;;;;;5091926;28;20475;-85
2020/12/27 00:36:59;;;;;;;11.75;7.18;;;0.90;99.90;;;;;;5110616;28;20020;-85
2020/12/27 00:39:26;;;;;;;10.80;6.75;;;0.70;99.90;;;;;;5110748;28;20028;-85
2020/12/27 00:41:57;;;;;;;9.07;5.20;;;1.00;99.90;;;;;;5112016;28;20044;-85
2020/12/27 00:44:22;;;;;;;10.27;6.30;;;0.90;99.90;;;;;;5112697;28;20017;-85
2020/12/27 00:46:49;;;;;;;11.95;6.60;;;0.90;99.90;;;;;;5091411;28;20036;-85
2020/12/27 00:49:16;;;;;;;11.27;6.18;;;0.90;99.90;;;;;;5098867;28;20012;-85
2020/12/27 00:51:42;;;;;;;9.02;5.47;;;0.80;99.90;;;;;;5104093;28;20032;-84
2020/12/27 00:54:07;;;;;;;8.85;5.47;;;0.80;99.90;;;;;;5122462;28;20093;-84
2020/12/27 00:56:33;;;;;;;11.27;5.80;;;0.70;99.90;;;;;;5122646;28;20016;-85
2020/12/27 00:58:59;;;;;;;10.25;5.65;;;0.70;99.90;;;;;;5122683;28;20039;-85
2020/12/27 01:01:24;;;;;;;8.25;5.05;;;0.90;99.90;;;;;;5122597;28;20008;-85
2020/12/27 01:03:50;;;;;;;9.80;4.70;;;1.00;99.90;;;;;;5103795;28;20012;-85
2020/12/27 01:06:25;;;;;;;10.52;5.22;;;0.30;99.90;;;;;;5103150;28;20095;-85
2020/12/27 01:08:51;;;;;;;10.55;5.07;;;0.30;99.90;;;;;;5104242;28;20371;-85
2020/12/27 01:11:17;;;;;;;12.15;6.72;;;0.30;99.90;;;;;;5120857;28;20020;-84
2020/12/27 01:13:43;;;;;;;12.07;6.10;;;0.30;99.90;;;;;;5121423;28;20020;-85
2020/12/27 01:16:11;;;;;;;10.07;5.45;;;0.60;99.90;;;;;;5119696;28;20046;-85
2020/12/27 01:18:37;;;;;;;10.85;5.55;;;0.60;99.90;;;;;;5102851;28;20015;-85
2020/12/27 01:21:03;;;;;;;10.98;5.80;;;0.50;99.90;;;;;;5101527;28;20027;-85
2020/12/27 01:23:29;;;;;;;9.77;5.43;;;0.70;99.90;;;;;;5102693;28;20031;-85
2020/12/27 01:25:54;;;;;;;8.57;5.03;;;0.80;99.90;;;;;;5120199;28;20048;-85
2020/12/27 01:28:20;;;;;;;12.68;5.03;;;0.70;99.90;;;;;;5120186;28;20008;-85
2020/12/27 01:30:46;;;;;;;9.07;4.93;;;0.50;99.90;;;;;;5102761;28;20024;-85
2020/12/27 01:33:11;;;;;;;7.85;4.75;;;0.60;99.90;;;;;;5101968;28;20071;-85
2020/12/27 01:35:37;;;;;;;9.15;5.20;;;0.40;99.90;;;;;;5101572;28;20024;-85
2020/12/27 01:38:03;;;;;;;10.27;5.78;;;0.30;99.90;;;;;;5102382;28;20102;-85
2020/12/27 01:40:29;;;;;;;9.70;5.55;;;0.40;99.90;;;;;;5102325;28;20039;-85
2020/12/27 01:42:58;;;;;;;12.20;5.43;;;0.40;99.90;;;;;;5120501;28;20031;-85
2020/12/27 01:45:24;;;;;;;7.93;5.15;;;0.70;99.90;;;;;;5102454;28;20016;-85
2020/12/27 01:47:51;;;;;;;7.50;4.95;;;0.80;99.90;;;;;;5120144;28;20036;-85
2020/12/27 01:50:18;;;;;;;11.05;5.47;;;0.80;99.90;;;;;;5119929;28;20046;-85
2020/12/27 01:52:44;;;;;;;10.10;5.05;;;0.70;99.90;;;;;;5102508;28;20093;-85
2020/12/27 01:55:14;;;;;;;8.68;4.55;;;0.60;99.90;;;;;;5120271;28;20011;-86
2020/12/27 01:57:52;;;;;;;11.75;5.43;;;0.40;99.90;;;;;;5102446;28;20032;-85
2020/12/27 02:00:18;;;;;;;9.90;5.07;;;0.20;99.90;;;;;;5103259;28;20009;-85
2020/12/27 02:02:43;;;;;;;7.20;4.65;;;0.10;99.90;;;;;;5102696;28;20030;-85
2020/12/27 02:05:09;;;;;;;8.73;5.07;;;0.20;99.90;;;;;;5120810;28;20041;-85
2020/12/27 02:07:36;;;;;;;11.68;5.10;;;0.00;99.90;;;;;;5103178;28;20008;-85
2020/12/27 02:10:02;;;;;;;10.63;5.15;;;0.30;99.90;;;;;;5120632;28;20016;-86
2020/12/27 02:12:28;;;;;;;9.95;5.15;;;0.40;99.90;;;;;;5102393;28;20050;-86
2020/12/27 02:14:53;;;;;;;10.10;5.15;;;0.30;99.90;;;;;;5103172;28;20028;-85
2020/12/27 02:17:19;;;;;;;9.25;5.47;;;0.20;99.90;;;;;;5101983;28;20047;-86
2020/12/27 02:19:45;;;;;;;12.10;5.05;;;0.40;99.90;;;;;;5102634;28;20081;-85
2020/12/27 02:22:11;;;;;;;7.05;4.65;;;0.30;99.90;;;;;;5119707;28;20008;-85
2020/12/27 02:24:36;;;;;;;10.80;5.32;;;-0.10;99.90;;;;;;5102052;28;20016;-85
2020/12/27 02:27:04;;;;;;;11.27;5.05;;;0.10;99.90;;;;;;5119683;28;20071;-85
2020/12/27 02:29:32;;;;;;;7.03;4.53;;;0.20;99.90;;;;;;5119331;28;20024;-85
2020/12/27 02:31:58;;;;;;;5.93;4.43;;;0.10;99.90;;;;;;5119381;28;20016;-85
2020/12/27 02:34:24;;;;;;;7.32;4.40;;;-0.40;99.90;;;;;;5115726;28;20040;-85
2020/12/27 02:36:50;;;;;;;8.15;4.53;;;-0.90;99.90;;;;;;5101810;28;20016;-86
2020/12/27 02:39:18;;;;;;;8.02;4.97;;;-0.40;99.90;;;;;;5119582;28;20016;-85
2020/12/27 02:41:47;;;;;;;7.22;4.50;;;-0.20;99.90;;;;;;5113869;28;20024;-85
2020/12/27 02:44:13;;;;;;;9.00;4.40;;;-0.30;99.90;;;;;;5119690;28;20020;-85
2020/12/27 02:46:39;;;;;;;8.77;5.32;;;-0.10;99.90;;;;;;5119108;28;20071;-85
2020/12/27 02:49:04;;;;;;;7.18;4.53;;;-0.20;99.90;;;;;;5119183;28;20008;-85
2020/12/27 02:51:30;;;;;;;7.15;4.20;;;-0.20;99.90;;;;;;5118627;28;20012;-85
2020/12/27 02:53:58;;;;;;;12.40;4.68;;;0.00;99.90;;;;;;5117140;28;20024;-85
2020/12/27 02:56:28;;;;;;;8.02;4.82;;;-0.10;99.90;;;;;;5099372;28;20032;-85
2020/12/27 02:58:59;;;;;;;10.68;4.78;;;0.00;99.90;;;;;;5099017;28;20000;-85
2020/12/27 03:01:25;;;;;;;9.40;4.60;;;0.20;99.90;;;;;;5100240;28;20111;-86
2020/12/27 03:03:50;;;;;;;9.82;4.85;;;0.40;99.90;;;;;;5118323;28;20020;-85
2020/12/27 03:06:19;;;;;;;7.78;4.47;;;0.70;99.90;;;;;;5098971;28;20020;-85
2020/12/27 03:08:54;;;;;;;7.43;4.72;;;0.70;99.90;;;;;;5117588;28;20023;-86
2020/12/27 03:11:23;;;;;;;7.63;4.45;;;0.70;99.90;;;;;;5115735;28;20004;-85
2020/12/27 03:13:49;;;;;;;9.05;4.85;;;0.50;99.90;;;;;;5117013;28;20051;-85
2020/12/27 03:16:15;;;;;;;7.55;4.68;;;0.30;99.90;;;;;;5114677;28;20007;-86
2020/12/27 03:18:40;;;;;;;8.00;4.38;;;-0.10;99.90;;;;;;5115399;28;20020;-85
2020/12/27 03:21:06;;;;;;;8.65;4.80;;;0.10;99.90;;;;;;5114889;28;20043;-85
2020/12/27 03:23:32;;;;;;;13.50;4.80;;;-0.20;99.90;;;;;;5118276;28;20009;-85
2020/12/27 03:25:57;;;;;;;7.10;4.50;;;-0.40;99.90;;;;;;5119156;28;20023;-85
2020/12/27 03:28:23;;;;;;;10.20;4.57;;;-0.50;99.90;;;;;;5119762;28;20032;-85
2020/12/27 03:30:49;;;;;;;7.05;4.40;;;-0.20;99.90;;;;;;5119674;28;20028;-85
2020/12/27 03:33:14;;;;;;;11.07;5.40;;;0.10;99.90;;;;;;5098976;28;20096;-85
2020/12/27 03:35:40;;;;;;;9.57;4.82;;;0.10;99.90;;;;;;5112559;28;20023;-85
2020/12/27 03:38:06;;;;;;;7.32;3.92;;;-0.20;99.90;;;;;;5091332;28;20107;-85
2020/12/27 03:40:31;;;;;;;7.25;4.15;;;-0.30;99.90;;;;;;5096450;28;20028;-84
2020/12/27 03:42:57;;;;;;;8.10;3.90;;;-0.20;99.90;;;;;;5092905;28;20050;-85
2020/12/27 03:45:23;;;;;;;11.45;4.38;;;0.00;99.90;;;;;;5088151;28;20024;-85
2020/12/27 03:47:49;;;;;;;8.57;4.38;;;-0.30;99.90;;;;;;5092839;28;20500;-85
2020/12/27 03:50:14;;;;;;;8.50;4.85;;;0.00;99.90;;;;;;5114671;28;20082;-85
2020/12/27 03:52:40;;;;;;;9.73;4.90;;;0.10;99.90;;;;;;5113263;28;20081;-85
2020/12/27 03:55:06;;;;;;;7.63;4.63;;;-0.10;99.90;;;;;;5095314;28;20008;-85
2020/12/27 03:57:31;;;;;;;6.65;4.38;;;0.10;99.90;;;;;;5094935;28;20048;-86
2020/12/27 03:59:57;;;;;;;8.57;4.63;;;0.10;99.90;;;;;;5095211;28;20028;-85
2020/12/27 04:02:23;;;;;;;10.48;4.93;;;0.20;99.90;;;;;;5095322;28;20028;-85
2020/12/27 04:04:48;;;;;;;10.77;4.90;;;0.20;99.90;;;;;;5113540;28;20024;-85
2020/12/27 04:07:14;;;;;;;7.57;4.55;;;0.20;99.90;;;;;;5113501;28;20020;-85
2020/12/27 04:09:40;;;;;;;7.35;4.85;;;0.00;99.90;;;;;;5095058;28;20008;-85
2020/12/27 04:12:05;;;;;;;6.97;4.57;;;0.20;99.90;;;;;;5113736;28;20052;-85
2020/12/27 04:14:31;;;;;;;7.57;4.32;;;-0.10;99.90;;;;;;5113211;28;20463;-85
2020/12/27 04:16:57;;;;;;;8.77;5.05;;;0.00;99.90;;;;;;5112753;28;20008;-85
2020/12/27 04:19:22;;;;;;;7.18;4.53;;;0.00;99.90;;;;;;5113895;28;20146;-85
2020/12/27 04:21:48;;;;;;;8.77;4.85;;;0.00;99.90;;;;;;5111933;28;20080;-85
2020/12/27 04:24:14;;;;;;;10.90;5.30;;;0.10;99.90;;;;;;5095028;28;20012;-85
2020/12/27 04:26:40;;;;;;;8.13;5.07;;;0.20;99.90;;;;;;5094905;28;20024;-85
2020/12/27 04:29:06;;;;;;;8.82;4.80;;;0.20;99.90;;;;;;5094516;28;20068;-86
2020/12/27 04:31:31;;;;;;;7.97;4.65;;;0.30;99.90;;;;;;5093319;28;20000;-85
2020/12/27 04:33:58;;;;;;;7.93;5.20;;;0.00;99.90;;;;;;5110094;28;20059;-85
2020/12/27 04:36:24;;;;;;;7.82;5.07;;;0.00;99.90;;;;;;5092456;28;20035;-85
2020/12/27 04:38:51;;;;;;;6.32;4.70;;;0.10;99.90;;;;;;5110664;28;20001;-85
2020/12/27 04:41:18;;;;;;;7.43;5.38;;;0.20;99.90;;;;;;5115022;28;20032;-85
2020/12/27 04:43:47;;;;;;;7.32;4.78;;;0.30;99.90;;;;;;5093767;28;20032;-85
2020/12/27 04:46:14;;;;;;;7.72;4.88;;;0.40;99.90;;;;;;5108432;28;20487;-85
2020/12/27 04:48:42;;;;;;;8.63;5.13;;;0.20;99.90;;;;;;5094015;28;20028;-85
2020/12/27 04:51:09;;;;;;;10.73;5.68;;;0.10;99.90;;;;;;5112926;28;20020;-85
2020/12/27 04:53:36;;;;;;;6.57;4.90;;;0.10;99.90;;;;;;5114907;28;20008;-85
2020/12/27 04:56:05;;;;;;;7.65;4.80;;;0.10;99.90;;;;;;5113822;28;20025;-85
2020/12/27 04:58:31;;;;;;;7.25;4.78;;;0.30;99.90;;;;;;5096210;28;20008;-85
2020/12/27 05:01:02;;;;;;;7.10;4.93;;;0.40;99.90;;;;;;5096959;28;20032;-85
2020/12/27 05:03:28;;;;;;;10.50;5.13;;;0.60;99.90;;;;;;5112739;28;20032;-85
2020/12/27 05:05:55;;;;;;;6.63;4.63;;;0.20;99.90;;;;;;5101779;28;20019;-85
2020/12/27 05:08:21;;;;;;;9.27;5.57;;;0.20;99.90;;;;;;5099953;28;20375;-85
2020/12/27 05:10:47;;;;;;;9.07;5.32;;;0.20;99.90;;;;;;5100477;28;20035;-85
2020/12/27 05:13:14;;;;;;;8.52;5.22;;;0.10;99.90;;;;;;5099885;28;20032;-85
2020/12/27 05:15:41;;;;;;;11.32;5.80;;;-0.10;99.90;;;;;;5103040;28;20092;-85
2020/12/27 05:18:08;;;;;;;10.13;5.47;;;0.00;99.90;;;;;;5119406;28;20028;-85
2020/12/27 05:20:41;;;;;;;11.75;5.43;;;0.30;99.90;;;;;;5119746;28;20008;-85
2020/12/27 05:23:08;;;;;;;9.50;5.20;;;0.30;99.90;;;;;;5101661;28;20025;-85
2020/12/27 05:25:40;;;;;;;7.43;4.88;;;0.40;99.90;;;;;;5102860;28;20079;-85
2020/12/27 05:28:08;;;;;;;7.30;4.70;;;0.60;99.90;;;;;;5119930;28;20011;-85
2020/12/27 05:30:34;;;;;;;10.70;5.15;;;0.70;99.90;;;;;;5101934;28;20011;-85
2020/12/27 05:33:00;;;;;;;8.68;5.13;;;0.70;99.90;;;;;;5118778;28;20020;-85
2020/12/27 05:35:26;;;;;;;8.57;5.10;;;0.60;99.90;;;;;;5101338;28;20020;-85
2020/12/27 05:37:52;;;;;;;10.63;5.32;;;0.50;99.90;;;;;;5119512;28;20016;-85
2020/12/27 05:40:19;;;;;;;7.40;5.13;;;0.30;99.90;;;;;;5118830;28;20091;-85
2020/12/27 05:42:45;;;;;;;9.57;5.57;;;0.50;99.90;;;;;;5102196;28;20012;-85
2020/12/27 05:45:17;;;;;;;10.52;5.10;;;0.50;99.90;;;;;;5101379;28;20050;-85
2020/12/27 05:47:44;;;;;;;12.20;4.82;;;0.60;99.90;;;;;;5101522;28;20032;-85
2020/12/27 05:50:19;;;;;;;9.15;4.53;;;0.50;99.90;;;;;;5120390;28;20036;-85
2020/12/27 05:52:47;;;;;;;7.35;4.95;;;0.60;99.90;;;;;;5102471;28;20054;-86
2020/12/27 05:55:21;;;;;;;7.68;4.70;;;0.50;99.90;;;;;;5096374;28;20024;-86
2020/12/27 05:57:51;;;;;;;8.38;5.18;;;0.40;99.90;;;;;;5102079;28;20050;-85
2020/12/27 06:00:19;;;;;;;8.93;4.88;;;0.40;99.90;;;;;;5118754;28;20042;-85
2020/12/27 06:02:50;;;;;;;9.98;5.50;;;0.30;99.90;;;;;;5117124;28;20063;-85
2020/12/27 06:05:16;;;;;;;10.75;5.78;;;0.10;99.90;;;;;;5117301;28;20028;-85
2020/12/27 06:07:43;;;;;;;8.30;5.40;;;-0.10;99.90;;;;;;5121023;28;20023;-85
2020/12/27 06:10:13;;;;;;;9.40;5.75;;;0.00;99.90;;;;;;5119147;28;20020;-84
2020/12/27 06:12:57;;;;;;;7.75;5.47;;;0.20;99.90;;;;;;5102965;28;20047;-86
2020/12/27 06:15:28;;;;;;;11.07;5.28;;;0.40;99.90;;;;;;5101368;28;20024;-85
2020/12/27 06:17:56;;;;;;;9.82;5.30;;;0.10;99.90;;;;;;5102534;28;20034;-85
2020/12/27 06:20:22;;;;;;;8.70;5.65;;;0.20;99.90;;;;;;5120740;28;20016;-85
2020/12/27 06:22:50;;;;;;;11.30;5.05;;;0.20;99.90;;;;;;5119690;28;20024;-85
2020/12/27 06:25:17;;;;;;;8.70;5.80;;;0.40;99.90;;;;;;5119524;28;20019;-85
2020/12/27 06:27:43;;;;;;;16.00;6.25;;;0.00;99.90;;;;;;5116588;28;20367;-85
2020/12/27 06:30:11;;;;;;;7.97;5.25;;;-0.10;99.90;;;;;;5101641;28;20031;-85
2020/12/27 06:32:47;;;;;;;10.60;5.38;;;0.10;99.90;;;;;;5119909;28;20054;-85
2020/12/27 06:35:13;;;;;;;11.35;5.80;;;0.30;99.90;;;;;;5102442;28;20012;-85
2020/12/27 06:37:41;;;;;;;10.30;6.13;;;0.20;99.90;;;;;;5100584;28;20071;-85
2020/12/27 06:40:07;;;;;;;12.65;5.70;;;-0.10;99.90;;;;;;5119355;28;20008;-86
2020/12/27 06:42:33;;;;;;;8.20;5.68;;;0.10;99.90;;;;;;5102003;28;20092;-85
2020/12/27 06:44:59;;;;;;;7.80;5.45;;;0.30;99.90;;;;;;5118688;28;20031;-85
2020/12/27 06:47:48;;;;;;;9.75;6.45;;;0.40;99.90;;;;;;5097800;28;20076;-85
2020/12/27 06:50:19;;;;;;;9.77;6.07;;;-0.50;99.90;;;;;;5100925;28;20036;-85
2020/12/27 06:52:45;;;;;;;11.88;6.05;;;-0.30;99.90;;;;;;5119623;28;20008;-85
2020/12/27 06:55:11;;;;;;;9.82;6.10;;;0.00;99.90;;;;;;5100015;28;20026;-85
2020/12/27 06:57:45;;;;;;;10.48;6.45;;;-0.10;99.90;;;;;;5117658;28;20008;-85
2020/12/27 07:00:25;;;;;;;8.05;5.47;;;0.00;99.90;;;;;;5117946;28;20037;-85
2020/12/27 07:03:10;;;;;;;8.57;5.43;;;-0.10;99.90;;;;;;5100606;28;20005;-85
2020/12/27 07:05:38;;;;;;;9.52;5.85;;;0.00;99.90;;;;;;5099033;28;20055;-85
2020/12/27 07:08:05;;;;;;;10.65;6.28;;;0.00;99.90;;;;;;5117237;28;20028;-86
2020/12/27 07:10:33;;;;;;;9.70;5.85;;;0.10;99.90;;;;;;5098830;28;20035;-85
2020/12/27 07:13:07;;;;;;;6.90;5.28;;;0.10;99.90;;;;;;5097852;28;20551;-85
2020/12/27 07:15:33;;;;;;;9.68;5.68;;;0.00;99.90;;;;;;5116558;28;20080;-85
2020/12/27 07:18:07;;;;;;;9.63;5.63;;;0.00;99.90;;;;;;5116501;28;20064;-85
2020/12/27 07:20:33;;;;;;;;;;;0.10;99.90;;;;;;5099692;28;20008;-85
2020/12/27 07:22:59;;;;;;;11.15;5.78;;;0.10;99.90;;;;;;5097779;28;19896;-85
2020/12/27 07:25:25;;;;;;;12.73;5.97;;;0.30;99.90;;;;;;5095412;28;20020;-85
2020/12/27 07:27:51;;;;;;;10.93;5.60;;;0.20;99.90;;;;;;5114014;28;20058;-85
2020/12/27 07:30:19;;;;;;;7.50;5.00;;;0.20;99.90;;;;;;5115716;28;20024;-85
2020/12/27 07:32:47;;;;;;;9.93;5.80;;;0.20;99.90;;;;;;5096729;28;20026;-85
2020/12/27 07:35:13;;;;;;;9.40;5.00;;;0.30;99.90;;;;;;5096232;28;20032;-85
2020/12/27 07:37:43;;;;;;;8.50;5.60;;;0.30;99.90;;;;;;5097240;28;20028;-85
2020/12/27 07:40:11;;;;;;;12.07;5.55;;;0.30;99.90;;;;;;5095963;28;20020;-85
2020/12/27 07:42:37;;;;;;;9.75;5.30;;;0.50;99.90;;;;;;5113704;28;20024;-85
2020/12/27 07:45:12;;;;;;;7.43;4.82;;;0.40;99.90;;;;;;5114608;28;20035;-85
2020/12/27 07:47:41;;;;;;;7.70;5.30;;;0.40;99.90;;;;;;5111219;28;20414;-85
2020/12/27 07:50:12;;;;;;;9.35;4.88;;;0.10;99.90;;;;;;5107934;28;20028;-85
2020/12/27 07:52:58;;;;;;;7.15;4.55;;;0.30;99.90;;;;;;5109162;28;20041;-85
2020/12/27 07:55:37;;;;;;;7.65;4.32;;;0.50;99.90;;;;;;5108692;28;20032;-85
2020/12/27 07:58:07;;;;;;;7.05;5.13;;;0.60;99.90;;;;;;5109538;28;20371;-85
2020/12/27 08:00:34;;;;;;;9.88;5.63;;;0.30;99.90;;;;;;5090312;28;20028;-84
2020/12/27 08:03:20;;;;;;;8.93;5.32;;;0.30;99.90;;;;;;5091795;28;20352;-85
2020/12/27 08:05:46;;;;;;;9.38;5.32;;;0.50;99.90;;;;;;5092168;28;20005;-84
2020/12/27 08:08:12;;;;;;;7.13;4.70;;;0.50;99.90;;;;;;5108831;28;20483;-84
2020/12/27 08:10:38;;;;;;;7.78;4.53;;;0.70;99.90;;;;;;5088938;28;20098;-84
2020/12/27 08:13:06;;;;;;;7.60;5.25;;;0.70;99.90;;;;;;5105451;28;20532;-84
2020/12/27 08:15:37;;;;;;;12.68;5.78;;;0.20;99.90;;;;;;5108014;28;20020;-84
2020/12/27 08:18:05;;;;;;;8.27;5.63;;;0.10;99.90;;;;;;5106802;28;20020;-84
2020/12/27 08:20:44;;;;;;;7.53;5.57;;;-0.10;99.90;;;;;;5107631;28;20045;-84
2020/12/27 08:23:10;;;;;;;10.55;5.80;;;0.00;99.90;;;;;;5090245;28;20659;-84
2020/12/27 08:25:38;;;;;;;8.38;4.85;;;0.00;99.90;;;;;;5089262;28;20028;-84
2020/12/27 08:28:12;;;;;;;8.60;5.38;;;0.20;99.90;;;;;;5106310;28;20106;-84
2020/12/27 08:30:37;;;;;;;;;;;0.10;99.90;;;;;;5088421;28;20031;-84
2020/12/27 08:33:16;;;;;;;10.25;5.90;;;0.20;99.90;;;;;;5103318;28;19904;-84
2020/12/27 08:35:44;;;;;;;10.48;5.70;;;-0.20;99.90;;;;;;5107276;28;20016;-84
2020/12/27 08:38:15;;;;;;;11.55;6.28;;;0.10;99.90;;;;;;5090748;28;20028;-84
2020/12/27 08:40:50;;;;;;;11.50;5.50;;;-0.10;99.90;;;;;;5097729;28;20050;-84
2020/12/27 08:43:27;;;;;;;12.13;5.43;;;0.10;99.90;;;;;;5113322;28;20023;-84
2020/12/27 08:45:58;;;;;;;9.32;5.47;;;0.20;99.90;;;;;;5092377;28;20047;-84
2020/12/27 08:48:55;;;;;;;8.60;5.72;;;0.00;99.90;;;;;;5108726;28;20452;-84
2020/12/27 08:51:23;;;;;;;16.67;5.55;;;-0.20;99.90;;;;;;5107163;28;20028;-84
2020/12/27 08:53:49;;;;;;;10.80;5.75;;;-0.40;99.90;;;;;;5088439;28;20031;-83
2020/12/27 08:56:16;;;;;;;8.02;5.10;;;-0.40;99.90;;;;;;5092835;28;20104;-83
2020/12/27 08:58:53;;;;;;;6.95;5.10;;;-0.20;99.90;;;;;;5085525;28;20020;-84
2020/12/27 09:01:24;;;;;;;23.83;12.45;;;-0.30;99.90;;;;;;5086578;28;20016;-84
2020/12/27 09:03:50;;;;;;;11.15;6.18;;;-0.30;99.90;;;;;;5087073;28;20031;-83
2020/12/27 09:06:16;;;;;;;8.20;5.15;;;-0.10;99.90;;;;;;5099987;28;20028;-83
2020/12/27 09:08:42;;;;;;;8.63;5.32;;;-0.20;99.90;;;;;;5101906;28;20095;-83
2020/12/27 09:11:08;;;;;;;9.73;5.50;;;-0.10;99.90;;;;;;5082490;28;20020;-84
2020/12/27 09:13:41;;;;;;;11.02;7.50;;;-0.10;99.90;;;;;;5098846;28;20089;-83
2020/12/27 09:16:07;;;;;;;10.10;5.88;;;-0.10;99.90;;;;;;5097853;28;20016;-83
2020/12/27 09:18:35;;;;;;;10.38;5.70;;;0.00;99.90;;;;;;5078476;28;20069;-83
2020/12/27 09:21:04;;;;;;;11.40;5.60;;;0.30;99.90;;;;;;5098063;28;20379;-82
2020/12/27 09:23:29;;;;;;;9.00;6.13;;;0.20;99.90;;;;;;5096503;28;20085;-83
2020/12/27 09:26:10;;;;;;;8.55;5.60;;;0.30;99.90;;;;;;5078883;28;20062;-83
2020/12/27 09:28:37;;;;;;;10.73;5.55;;;0.20;99.90;;;;;;5078185;28;20486;-82
2020/12/27 09:31:09;;;;;;;11.05;6.70;;;0.50;99.90;;;;;;5096194;28;20024;-82
2020/12/27 09:33:44;;;;;;;16.27;11.10;;;0.70;99.90;;;;;;5078331;28;20429;-83
2020/12/27 09:36:11;;;;;;;10.07;6.50;;;0.90;99.90;;;;;;5077991;28;20111;-83
2020/12/27 09:38:39;;;;;;;7.20;5.32;;;0.90;99.90;;;;;;5096375;28;20111;-83
2020/12/27 09:41:06;;;;;;;7.07;4.95;;;1.00;99.90;;;;;;5096058;28;20024;-83
2020/12/27 09:43:44;;;;;;;9.57;5.22;;;1.20;99.90;;;;;;5079540;28;20026;-83
2020/12/27 09:46:10;;;;;;;8.57;5.50;;;0.70;99.90;;;;;;5096046;28;20375;-83
2020/12/27 09:48:36;;;;;;;8.57;6.03;;;0.80;99.90;;;;;;5078092;28;20038;-82
2020/12/27 09:51:14;;;;;;;8.85;6.28;;;0.70;99.90;;;;;;5095610;28;20471;-82
2020/12/27 09:53:40;;;;;;;9.73;5.60;;;0.80;99.90;;;;;;5077778;28;20120;-83
2020/12/27 09:56:06;;;;;;;9.90;5.68;;;1.00;99.90;;;;;;5095997;28;20099;-83
2020/12/27 09:58:31;;;;;;;7.93;5.22;;;0.70;99.90;;;;;;5077665;28;20031;-83
2020/12/27 10:00:57;;;;;;;10.32;6.25;;;0.50;99.90;;;;;;5096296;28;20420;-83
2020/12/27 10:03:22;;;;;;;9.52;6.00;;;0.70;99.90;;;;;;5096241;28;20467;-82
2020/12/27 10:05:48;;;;;;;8.60;6.28;;;0.60;99.90;;;;;;5095909;28;20021;-82
2020/12/27 10:08:14;;;;;;;10.93;4.95;;;0.70;99.90;;;;;;5077434;28;20028;-82
2020/12/27 10:10:39;;;;;;;7.03;5.50;;;0.60;99.90;;;;;;5095639;28;20059;-83
2020/12/27 10:13:05;;;;;;;9.35;5.82;;;0.50;99.90;;;;;;5077182;28;20071;-82
2020/12/27 10:15:31;;;;;;;10.18;5.50;;;0.70;99.90;;;;;;5095515;28;20352;-83
2020/12/27 10:17:56;;;;;;;11.88;5.35;;;0.60;99.90;;;;;;5077225;28;20126;-83
2020/12/27 10:20:22;;;;;;;10.27;5.72;;;0.50;99.90;;;;;;5077201;28;20028;-82
2020/12/27 10:22:48;;;;;;;10.73;5.28;;;0.40;99.90;;;;;;5095698;28;20016;-82
2020/12/27 10:25:13;;;;;;;12.98;6.45;;;0.50;99.90;;;;;;5095277;28;20028;-83
2020/12/27 10:27:39;;;;;;;9.15;5.45;;;0.80;99.90;;;;;;5095290;28;20516;-82
2020/12/27 10:30:05;;;;;;;10.77;5.22;;;1.00;99.90;;;;;;5077009;28;20024;-82
2020/12/27 10:32:31;;;;;;;8.93;5.13;;;1.10;99.90;;;;;;5076919;28;20024;-82
2020/12/27 10:34:57;;;;;;;7.22;4.80;;;1.10;99.90;;;;;;5095323;28;20078;-82
2020/12/27 10:37:22;;;;;;;7.57;5.10;;;1.30;99.90;;;;;;5095243;28;20031;-82
2020/12/27 10:39:49;;;;;;;8.65;5.82;;;1.30;99.90;;;;;;5076822;28;20039;-83
2020/12/27 10:42:15;;;;;;;9.18;5.50;;;1.30;99.90;;;;;;5076749;28;20451;-83
2020/12/27 10:44:41;;;;;;;7.75;5.57;;;1.10;99.90;;;;;;5094869;28;20058;-82
2020/12/27 10:47:08;;;;;;;10.30;5.55;;;1.10;99.90;;;;;;5076622;28;20098;-82
2020/12/27 10:49:34;;;;;;;8.50;5.80;;;1.30;99.90;;;;;;5076622;28;20032;-82
2020/12/27 10:51:59;;;;;;;10.38;5.40;;;1.50;99.90;;;;;;5094620;28;20387;-82
2020/12/27 10:54:25;;;;;;;9.98;5.60;;;1.50;99.90;;;;;;5094953;28;20028;-82
2020/12/27 10:56:51;;;;;;;7.80;5.43;;;1.30;99.90;;;;;;5094569;28;20035;-82
2020/12/27 10:59:16;;;;;;;13.30;6.88;;;1.10;99.90;;;;;;5094525;28;20356;-82
2020/12/27 11:01:44;;;;;;;7.95;4.78;;;1.20;99.90;;;;;;5093780;28;20016;-82
2020/12/27 11:04:11;;;;;;;8.25;5.10;;;1.00;99.90;;;;;;5076124;28;20058;-83
2020/12/27 11:06:37;;;;;;;8.95;5.70;;;1.20;99.90;;;;;;5076225;28;20044;-82
2020/12/27 11:09:02;;;;;;;11.23;4.95;;;1.20;99.90;;;;;;5076218;28;20016;-82
2020/12/27 11:11:28;;;;;;;8.63;5.95;;;1.20;99.90;;;;;;5094020;28;20047;-82
2020/12/27 11:13:54;;;;;;;8.27;5.18;;;1.30;99.90;;;;;;5094585;28;20024;-83
2020/12/27 11:16:20;;;;;;;9.40;5.53;;;1.50;99.90;;;;;;5094228;28;20103;-82
2020/12/27 11:18:45;;;;;;;7.20;5.43;;;1.50;99.90;;;;;;5094525;28;20020;-82
2020/12/27 11:21:11;;;;;;;8.13;5.47;;;1.60;99.90;;;;;;5094172;28;20020;-82
2020/12/27 11:23:37;;;;;;;10.07;4.88;;;1.60;99.90;;;;;;5094135;28;20020;-83
2020/12/27 11:26:03;;;;;;;7.25;5.30;;;1.60;99.90;;;;;;5075973;28;20067;-82
2020/12/27 11:28:29;;;;;;;7.00;4.35;;;1.80;99.90;;;;;;5094044;28;20032;-82
2020/12/27 11:30:55;;;;;;;10.75;6.85;;;1.80;99.90;;;;;;5075866;28;20035;-82
2020/12/27 11:33:20;;;;;;;9.00;4.22;;;1.80;99.90;;;;;;5094003;28;20106;-82
2020/12/27 11:35:46;;;;;;;6.90;4.18;;;1.80;99.90;;;;;;5093966;28;20020;-82
2020/12/27 11:38:12;;;;;;;6.35;4.03;;;1.80;99.90;;;;;;5075703;28;20034;-82
2020/12/27 11:40:38;;;;;;;6.13;3.97;;;1.70;99.90;;;;;;5093905;28;20016;-83
2020/12/27 11:43:04;;;;;;;6.95;4.05;;;1.70;99.90;;;;;;5075758;28;20502;-82
2020/12/27 11:45:29;;;;;;;7.80;4.25;;;1.40;99.90;;;;;;5094378;28;20074;-82
2020/12/27 11:47:55;;;;;;;8.85;4.35;;;1.70;99.90;;;;;;5093777;28;20483;-82
2020/12/27 11:50:21;;;;;;;9.15;4.30;;;1.70;99.90;;;;;;5093809;28;20475;-82
2020/12/27 11:52:46;;;;;;;8.85;4.82;;;1.70;99.90;;;;;;5093705;28;20380;-82
2020/12/27 11:55:12;;;;;;;8.27;4.35;;;1.70;99.90;;;;;;5075626;28;20082;-82
2020/12/27 11:57:37;;;;;;;8.95;5.05;;;1.60;99.90;;;;;;5094175;28;20024;-82
2020/12/27 12:00:06;;;;;;;8.02;4.95;;;1.70;99.90;;;;;;5075630;28;20081;-82
2020/12/27 12:02:32;;;;;;;11.82;4.82;;;1.80;99.90;;;;;;5075486;28;20035;-82
2020/12/27 12:04:58;;;;;;;7.35;4.78;;;1.60;99.90;;;;;;5093670;28;20020;-82
2020/12/27 12:07:23;;;;;;;8.15;5.03;;;1.70;99.90;;;;;;5093829;28;20024;-82
2020/12/27 12:09:49;;;;;;;18.42;8.02;;;1.70;99.90;;;;;;5075533;28;20035;-82
2020/12/27 12:12:15;;;;;;;8.82;4.97;;;1.70;99.90;;;;;;5075234;28;20043;-82
2020/12/27 12:14:41;;;;;;;8.68;4.13;;;1.70;99.90;;;;;;5097954;28;20028;-82
2020/12/27 12:17:07;;;;;;;6.88;4.47;;;1.60;99.90;;;;;;5097608;28;20032;-83
2020/12/27 12:19:33;;;;;;;7.70;4.13;;;1.70;99.90;;;;;;5079435;28;20065;-82
2020/12/27 12:21:59;;;;;;;7.32;4.60;;;1.60;99.90;;;;;;5079460;28;20023;-82
2020/12/27 12:24:24;;;;;;;6.72;4.75;;;1.50;99.90;;;;;;5097673;28;20152;-83
2020/12/27 12:26:50;;;;;;;7.57;5.05;;;1.50;99.90;;;;;;5079426;28;20114;-83
2020/12/27 12:29:17;;;;;;;8.13;4.03;;;1.60;99.90;;;;;;5097436;28;20024;-83
2020/12/27 12:31:43;;;;;;;6.07;4.03;;;1.80;99.90;;;;;;5097393;28;20024;-83
2020/12/27 12:34:09;;;;;;;9.13;4.75;;;1.60;99.90;;;;;;5097375;28;20405;-83
2020/12/27 12:36:35;;;;;;;6.82;4.10;;;1.70;99.90;;;;;;5097304;28;20047;-84
2020/12/27 12:39:03;;;;;;;12.25;4.68;;;1.70;99.90;;;;;;5079125;28;20059;-82
2020/12/27 12:41:32;;;;;;;7.15;4.30;;;1.90;99.90;;;;;;5079098;28;20579;-83
2020/12/27 12:43:59;;;;;;;8.80;4.60;;;2.00;99.90;;;;;;5079009;28;20016;-83
2020/12/27 12:46:25;;;;;;;6.45;4.28;;;2.10;99.90;;;;;;5079028;28;20024;-83
2020/12/27 12:48:53;;;;;;;7.43;4.18;;;2.20;99.90;;;;;;5078916;28;20028;-82
2020/12/27 12:51:19;;;;;;;8.65;4.63;;;2.00;99.90;;;;;;5078805;28;20031;-82
2020/12/27 12:53:45;;;;;;;8.13;4.72;;;2.00;99.90;;;;;;5078825;28;20024;-82